createdAt,value
2019-05-18T00:00:37.874Z,81.35
2019-05-18T00:03:09.656Z,80.66
2019-05-18T00:05:41.066Z,79.63
2019-05-18T00:08:12.517Z,79.95
2019-05-18T00:10:44.282Z,79.11
2019-05-18T00:13:15.691Z,79.14
2019-05-18T00:15:47.052Z,79.46
2019-05-18T00:18:18.511Z,79.67
2019-05-18T00:20:49.846Z,80.03
2019-05-18T00:23:21.302Z,80.83
2019-05-18T00:25:52.756Z,80.27
2019-05-18T00:28:25.957Z,81.43
2019-05-18T00:30:57.194Z,82.50
2019-05-18T00:33:28.722Z,83.10
2019-05-18T00:36:00.111Z,84.21
2019-05-18T00:38:31.522Z,83.32
2019-05-18T00:41:02.978Z,82.55
2019-05-18T00:43:34.566Z,81.91
2019-05-18T00:46:06.271Z,82.70
2019-05-18T00:48:38.132Z,83.53
2019-05-18T00:51:09.558Z,83.01
2019-05-18T00:53:40.864Z,83.79
2019-05-18T00:56:12.302Z,83.37
2019-05-18T00:58:43.786Z,83.39
2019-05-18T01:01:15.426Z,83.03
2019-05-18T01:03:48.144Z,82.91
2019-05-18T01:06:19.617Z,82.66
2019-05-18T01:08:51.288Z,82.22
2019-05-18T01:11:23.048Z,82.42
2019-05-18T01:13:54.483Z,82.28
2019-05-18T01:16:25.870Z,82.41
2019-05-18T01:18:57.557Z,82.98
2019-05-18T01:21:29.109Z,83.58
2019-05-18T01:24:00.920Z,83.94
2019-05-18T01:26:36.521Z,83.08
2019-05-18T01:29:08.673Z,83.21
2019-05-18T01:31:40.585Z,83.36
2019-05-18T01:34:11.974Z,83.44
2019-05-18T01:36:43.644Z,83.82
2019-05-18T01:39:15.761Z,84.35
2019-05-18T01:41:50.057Z,84.15
2019-05-18T01:44:22.396Z,84.13
2019-05-18T01:46:56.270Z,84.61
2019-05-18T01:49:28.325Z,84.65
2019-05-18T01:52:00.119Z,85.06
2019-05-18T01:54:31.649Z,84.71
2019-05-18T01:57:03.333Z,84.72
2019-05-18T01:59:36.535Z,85.30
2019-05-18T02:02:08.037Z,85.25
2019-05-18T02:04:39.297Z,85.04
2019-05-18T02:07:10.726Z,85.45
2019-05-18T02:09:45.009Z,85.76
2019-05-18T02:12:17.093Z,85.16
2019-05-18T02:14:49.711Z,84.07
2019-05-18T02:17:24.050Z,83.89
2019-05-18T02:19:55.536Z,83.06
2019-05-18T02:22:27.042Z,82.90
2019-05-18T02:24:58.790Z,84.04
2019-05-18T02:27:30.645Z,84.16
2019-05-18T02:30:02.403Z,83.88
2019-05-18T02:32:43.842Z,84.23
2019-05-18T02:35:20.103Z,82.98
2019-05-18T02:37:51.903Z,83.60
2019-05-18T02:40:23.225Z,83.13
2019-05-18T02:42:54.882Z,84.84
2019-05-18T02:45:26.397Z,85.46
2019-05-18T02:47:58.112Z,84.61
2019-05-18T02:50:29.609Z,83.37
2019-05-18T02:53:01.791Z,83.79
2019-05-18T02:55:33.643Z,84.56
2019-05-18T02:58:06.153Z,85.22
2019-05-18T03:00:37.995Z,85.22
2019-05-18T03:03:09.558Z,84.38
2019-05-18T03:05:41.021Z,83.63
2019-05-18T03:08:12.738Z,84.00
2019-05-18T03:10:44.148Z,83.78
2019-05-18T03:13:16.569Z,84.75
2019-05-18T03:15:47.944Z,84.31
2019-05-18T03:18:19.368Z,85.26
2019-05-18T03:20:51.024Z,84.60
2019-05-18T03:23:22.618Z,83.61
2019-05-18T03:25:54.029Z,83.63
2019-05-18T03:28:25.728Z,83.08
2019-05-18T03:30:57.360Z,82.78
2019-05-18T03:33:30.169Z,82.95
2019-05-18T03:36:01.735Z,83.20
2019-05-18T03:38:33.195Z,81.84
2019-05-18T03:41:04.486Z,80.48
2019-05-18T03:43:37.857Z,80.33
2019-05-18T03:46:09.104Z,79.06
2019-05-18T03:48:40.492Z,80.65
2019-05-18T03:51:11.942Z,78.72
2019-05-18T03:53:43.372Z,79.19
2019-05-18T03:56:14.614Z,78.86
2019-05-18T03:58:46.135Z,80.41
2019-05-18T04:01:17.361Z,80.86
2019-05-18T04:03:48.873Z,80.81
2019-05-18T04:06:22.958Z,79.86
2019-05-18T04:08:54.581Z,79.78
2019-05-18T04:11:25.802Z,80.36
2019-05-18T04:13:58.488Z,80.59
2019-05-18T04:16:31.071Z,80.72
2019-05-18T04:19:02.575Z,80.39
2019-05-18T04:21:34.102Z,80.51
2019-05-18T04:24:05.467Z,78.73
2019-05-18T04:26:36.912Z,77.92
2019-05-18T04:29:08.693Z,77.83
2019-05-18T04:31:40.426Z,76.59
2019-05-18T04:34:12.134Z,75.84
2019-05-18T04:36:43.729Z,74.33
2019-05-18T04:39:21.310Z,74.14
2019-05-18T04:41:52.996Z,75.24
2019-05-18T04:44:24.530Z,75.75
2019-05-18T04:46:57.593Z,75.84
2019-05-18T04:49:30.629Z,76.48
2019-05-18T04:52:01.933Z,78.24
2019-05-18T04:54:34.133Z,77.82
2019-05-18T04:57:06.153Z,77.02
2019-05-18T04:59:37.599Z,74.38
2019-05-18T05:02:09.383Z,74.67
2019-05-18T05:04:41.002Z,75.40
2019-05-18T05:07:12.320Z,75.18
2019-05-18T05:09:44.001Z,75.87
2019-05-18T05:12:16.173Z,76.36
2019-05-18T05:14:49.951Z,77.31
2019-05-18T05:17:21.563Z,78.12
2019-05-18T05:19:52.872Z,78.81
2019-05-18T05:22:25.314Z,78.84
2019-05-18T05:24:57.259Z,79.12
2019-05-18T05:27:30.825Z,78.19
2019-05-18T05:30:07.231Z,78.49
2019-05-18T05:32:46.281Z,78.72
2019-05-18T05:35:18.032Z,79.09
2019-05-18T05:37:49.918Z,78.91
2019-05-18T05:40:21.714Z,79.07
2019-05-18T05:42:53.899Z,78.97
2019-05-18T05:45:25.983Z,78.16
2019-05-18T05:47:57.446Z,77.91
2019-05-18T05:50:35.774Z,78.40
2019-05-18T05:53:03.048Z,78.44
2019-05-18T05:55:35.031Z,78.69
2019-05-18T05:58:06.782Z,78.65
2019-05-18T06:00:38.185Z,78.45
2019-05-18T06:03:10.458Z,78.31
2019-05-18T06:05:41.981Z,77.88
2019-05-18T06:08:13.611Z,77.34
2019-05-18T06:10:45.375Z,76.72
2019-05-18T06:13:16.843Z,76.96
2019-05-18T06:15:48.335Z,76.60
2019-05-18T06:18:19.852Z,76.61
2019-05-18T06:20:52.183Z,76.82
2019-05-18T06:23:23.621Z,76.95
2019-05-18T06:25:55.107Z,76.39
2019-05-18T06:28:26.729Z,76.04
2019-05-18T06:31:00.237Z,76.40
2019-05-18T06:33:31.771Z,76.19
2019-05-18T06:36:03.333Z,75.46
2019-05-18T06:38:34.791Z,75.93
2019-05-18T06:41:06.026Z,75.47
2019-05-18T06:43:37.430Z,75.06
2019-05-18T06:46:08.700Z,74.71
2019-05-18T06:48:39.942Z,74.77
2019-05-18T06:51:11.393Z,74.38
2019-05-18T06:53:42.985Z,74.42
2019-05-18T06:56:14.956Z,74.14
2019-05-18T06:58:46.685Z,73.05
2019-05-18T07:01:17.945Z,73.22
2019-05-18T07:03:52.111Z,73.03
2019-05-18T07:06:23.169Z,72.72
2019-05-18T07:08:56.469Z,72.97
2019-05-18T07:11:29.699Z,72.77
2019-05-18T07:14:01.238Z,72.13
2019-05-18T07:16:32.739Z,72.87
2019-05-18T07:19:04.472Z,71.98
2019-05-18T07:21:35.897Z,72.10
2019-05-18T07:24:10.049Z,69.90
2019-05-18T07:26:42.741Z,69.44
2019-05-18T07:29:50.511Z,70.89
2019-05-18T07:32:31.330Z,69.89
2019-05-18T07:35:02.951Z,69.15
2019-05-18T07:37:45.375Z,69.61
2019-05-18T07:40:17.074Z,68.66
2019-05-18T07:42:48.708Z,66.61
2019-05-18T07:45:20.321Z,67.01
2019-05-18T07:47:51.633Z,67.17
2019-05-18T07:50:23.111Z,67.62
2019-05-18T07:52:54.922Z,67.08
2019-05-18T07:55:26.604Z,67.09
2019-05-18T07:58:01.379Z,67.02
2019-05-18T08:00:34.098Z,66.26
2019-05-18T08:03:06.266Z,66.45
2019-05-18T08:05:37.840Z,66.58
2019-05-18T08:08:09.591Z,66.12
2019-05-18T08:10:43.616Z,65.13
2019-05-18T08:13:16.799Z,66.04
2019-05-18T08:15:48.653Z,66.56
2019-05-18T08:18:21.927Z,65.52
2019-05-18T08:20:53.315Z,65.46
2019-05-18T08:23:24.813Z,66.07
2019-05-18T08:25:56.951Z,65.55
2019-05-18T08:28:29.440Z,66.03
2019-05-18T08:31:01.221Z,65.81
2019-05-18T08:33:33.057Z,65.78
2019-05-18T08:36:04.737Z,65.27
2019-05-18T08:38:36.603Z,64.72
2019-05-18T08:41:07.894Z,64.48
2019-05-18T08:43:39.184Z,63.83
2019-05-18T08:46:10.616Z,63.85
2019-05-18T08:48:42.063Z,63.67
2019-05-18T08:51:16.068Z,65.52
2019-05-18T08:53:47.808Z,64.08
2019-05-18T08:56:19.280Z,61.54
2019-05-18T08:58:51.749Z,60.61
2019-05-18T09:01:23.429Z,58.98
2019-05-18T09:03:54.763Z,59.63
2019-05-18T09:06:26.531Z,59.59
2019-05-18T09:08:57.940Z,59.53
2019-05-18T09:11:29.592Z,59.42
2019-05-18T09:14:01.376Z,60.14
2019-05-18T09:16:32.813Z,58.97
2019-05-18T09:19:04.804Z,59.88
2019-05-18T09:21:36.349Z,60.26
2019-05-18T09:24:09.126Z,59.47
2019-05-18T09:26:42.036Z,59.16
2019-05-18T09:29:16.879Z,58.64
2019-05-18T09:31:48.421Z,58.23
2019-05-18T09:34:19.867Z,57.76
2019-05-18T09:36:51.948Z,57.02
2019-05-18T09:39:23.383Z,57.55
2019-05-18T09:41:56.266Z,57.24
2019-05-18T09:44:27.858Z,57.58
2019-05-18T09:46:59.639Z,57.70
2019-05-18T09:49:30.996Z,58.71
2019-05-18T09:52:02.747Z,58.31
2019-05-18T09:54:35.607Z,58.12
2019-05-18T09:57:06.901Z,57.48
2019-05-18T09:59:39.374Z,57.24
2019-05-18T10:02:10.812Z,55.65
2019-05-18T10:04:42.734Z,56.16
2019-05-18T10:07:14.288Z,55.30
2019-05-18T10:09:45.689Z,54.34
2019-05-18T10:12:17.157Z,54.72
2019-05-18T10:14:48.752Z,53.46
2019-05-18T10:17:20.012Z,53.74
2019-05-18T10:19:51.229Z,52.18
2019-05-18T10:22:22.965Z,50.77
2019-05-18T10:24:54.576Z,50.66
2019-05-18T10:27:27.270Z,50.99
2019-05-18T10:29:58.528Z,51.84
2019-05-18T10:32:31.409Z,51.86
2019-05-18T10:35:14.261Z,51.00
2019-05-18T10:37:45.566Z,51.65
2019-05-18T10:40:18.109Z,51.86
2019-05-18T10:42:49.649Z,51.45
2019-05-18T10:45:21.055Z,50.63
2019-05-18T10:48:28.647Z,48.95
2019-05-18T10:51:15.361Z,50.08
2019-05-18T10:53:48.030Z,50.41
2019-05-18T10:56:57.073Z,49.06
2019-05-18T10:59:28.385Z,50.21
2019-05-18T11:02:10.748Z,49.56
2019-05-18T11:04:43.023Z,49.95
2019-05-18T11:07:14.407Z,50.70
2019-05-18T11:09:57.266Z,50.41
2019-05-18T11:12:47.074Z,50.78
2019-05-18T11:15:29.131Z,50.92
2019-05-18T11:18:10.936Z,48.91
2019-05-18T11:20:48.666Z,48.26
2019-05-18T11:23:26.687Z,47.29
2019-05-18T11:26:07.664Z,47.92
2019-05-18T11:28:39.731Z,47.27
2019-05-18T11:31:11.804Z,47.56
2019-05-18T11:33:43.497Z,49.59
2019-05-18T11:36:14.968Z,48.40
2019-05-18T11:38:47.345Z,48.32
2019-05-18T11:41:18.910Z,47.68
2019-05-18T11:43:50.380Z,47.61
2019-05-18T11:46:22.211Z,46.61
2019-05-18T11:48:54.464Z,46.74
2019-05-18T11:51:26.298Z,46.96
2019-05-18T11:53:58.663Z,47.63
2019-05-18T11:56:30.678Z,47.08
2019-05-18T11:59:02.214Z,46.92
2019-05-18T12:01:33.919Z,46.50
2019-05-18T12:04:05.662Z,47.83
2019-05-18T12:06:37.385Z,49.22
2019-05-18T12:09:09.177Z,48.21
2019-05-18T12:11:41.029Z,48.25
2019-05-18T12:14:12.845Z,48.85
2019-05-18T12:16:46.116Z,47.77
2019-05-18T12:19:17.475Z,47.58
2019-05-18T12:21:49.453Z,49.51
2019-05-18T12:24:22.661Z,48.92
2019-05-18T12:26:57.912Z,49.45
2019-05-18T12:29:30.717Z,48.90
2019-05-18T12:32:03.817Z,49.08
2019-05-18T12:34:35.507Z,48.53
2019-05-18T12:37:07.082Z,50.09
2019-05-18T12:39:38.400Z,50.30
2019-05-18T12:42:09.900Z,50.46
2019-05-18T12:44:41.171Z,50.02
2019-05-18T12:47:14.486Z,48.90
2019-05-18T12:49:45.592Z,49.48
2019-05-18T12:52:18.429Z,49.22
2019-05-18T12:54:50.968Z,48.84
2019-05-18T12:57:22.955Z,49.32
2019-05-18T12:59:54.527Z,48.47
2019-05-18T13:02:26.412Z,48.98
2019-05-18T13:04:58.291Z,47.21
2019-05-18T13:07:30.428Z,47.75
2019-05-18T13:10:01.854Z,48.99
2019-05-18T13:12:43.976Z,48.37
2019-05-18T13:15:17.643Z,48.38
2019-05-18T13:17:50.930Z,47.54
2019-05-18T13:20:25.039Z,46.88
2019-05-18T13:22:56.832Z,47.09
2019-05-18T13:25:28.420Z,47.23
2019-05-18T13:27:59.723Z,47.40
2019-05-18T13:30:31.527Z,47.73
2019-05-18T13:33:05.624Z,48.86
2019-05-18T13:35:38.227Z,47.63
2019-05-18T13:38:10.059Z,47.66
2019-05-18T13:40:41.735Z,49.80
2019-05-18T13:43:13.029Z,50.63
2019-05-18T13:45:47.051Z,50.00
2019-05-18T13:48:18.498Z,49.04
2019-05-18T13:50:50.958Z,48.92
2019-05-18T13:53:22.824Z,48.74
2019-05-18T13:55:56.607Z,49.15
2019-05-18T13:58:30.779Z,48.15
2019-05-18T14:01:02.714Z,48.34
2019-05-18T14:03:34.745Z,47.85
2019-05-18T14:06:06.125Z,47.92
2019-05-18T14:08:38.672Z,47.32
2019-05-18T14:11:10.331Z,47.67
2019-05-18T14:13:42.655Z,47.81
2019-05-18T14:16:14.265Z,49.04
2019-05-18T14:18:47.853Z,49.08
2019-05-18T14:21:19.150Z,48.14
2019-05-18T14:23:50.460Z,48.17
2019-05-18T14:26:21.837Z,47.28
2019-05-18T14:28:53.109Z,48.80
2019-05-18T14:31:24.799Z,48.34
2019-05-18T14:33:56.352Z,49.24
2019-05-18T14:36:27.663Z,48.74
2019-05-18T14:38:59.357Z,48.73
2019-05-18T14:41:30.984Z,49.62
2019-05-18T14:44:02.603Z,49.76
2019-05-18T14:46:34.464Z,49.56
2019-05-18T14:49:05.720Z,49.64
2019-05-18T14:51:37.063Z,48.27
2019-05-18T14:54:08.428Z,49.00
2019-05-18T14:56:42.226Z,48.15
2019-05-18T14:59:13.560Z,48.72
2019-05-18T15:01:45.007Z,47.46
2019-05-18T15:04:18.769Z,47.60
2019-05-18T15:06:50.314Z,47.34
2019-05-18T15:09:21.570Z,47.60
2019-05-18T15:11:52.993Z,47.20
2019-05-18T15:14:24.811Z,47.04
2019-05-18T15:16:57.012Z,46.26
2019-05-18T15:19:28.869Z,47.14
2019-05-18T15:22:02.080Z,46.79
2019-05-18T15:24:34.848Z,46.87
2019-05-18T15:27:08.741Z,46.98
2019-05-18T15:29:43.379Z,47.07
2019-05-18T15:32:14.959Z,46.28
2019-05-18T15:34:47.224Z,47.23
2019-05-18T15:37:19.863Z,48.03
2019-05-18T15:39:51.742Z,48.30
2019-05-18T15:42:23.986Z,48.71
2019-05-18T15:44:55.327Z,48.95
2019-05-18T15:47:27.224Z,49.29
2019-05-18T15:50:00.129Z,48.80
2019-05-18T15:52:42.455Z,48.04
2019-05-18T15:55:18.312Z,47.75
2019-05-18T15:57:52.898Z,48.24
2019-05-18T16:00:24.968Z,48.02
2019-05-18T16:03:00.015Z,47.10
2019-05-18T16:05:34.471Z,47.80
2019-05-18T16:08:06.017Z,48.69
2019-05-18T16:10:40.019Z,49.36
2019-05-18T16:13:12.607Z,48.86
2019-05-18T16:15:46.094Z,48.68
2019-05-18T16:18:18.004Z,48.01
2019-05-18T16:20:50.960Z,48.88
2019-05-18T16:23:24.490Z,48.57
2019-05-18T16:25:56.974Z,48.25
2019-05-18T16:28:29.854Z,48.47
2019-05-18T16:31:03.432Z,48.80
2019-05-18T16:33:36.913Z,49.16
2019-05-18T16:36:10.367Z,49.25
2019-05-18T16:38:44.482Z,49.13
2019-05-18T16:41:18.050Z,48.95
2019-05-18T16:43:51.407Z,48.91
2019-05-18T16:46:23.028Z,48.31
2019-05-18T16:48:57.089Z,48.37
2019-05-18T16:51:28.993Z,48.52
2019-05-18T16:54:03.224Z,47.85
2019-05-18T16:56:36.376Z,47.39
2019-05-18T16:59:08.277Z,47.43
2019-05-18T17:01:41.641Z,48.04
2019-05-18T17:04:15.182Z,47.11
2019-05-18T17:06:47.351Z,47.67
2019-05-18T17:09:22.544Z,48.26
2019-05-18T17:11:55.163Z,47.71
2019-05-18T17:14:27.269Z,47.28
2019-05-18T17:17:01.805Z,47.73
2019-05-18T17:19:34.729Z,48.28
2019-05-18T17:22:07.546Z,48.09
2019-05-18T17:24:46.173Z,48.00
2019-05-18T17:27:22.737Z,48.37
2019-05-18T17:29:56.301Z,48.57
2019-05-18T17:32:30.479Z,49.58
2019-05-18T17:35:02.121Z,49.65
2019-05-18T17:37:45.951Z,48.80
2019-05-18T17:40:19.705Z,48.24
2019-05-18T17:43:03.382Z,47.97
2019-05-18T17:45:46.569Z,48.29
2019-05-18T17:48:31.690Z,48.83
2019-05-18T17:51:14.104Z,49.76
2019-05-18T17:53:54.000Z,49.82
2019-05-18T17:56:31.631Z,50.04
2019-05-18T17:59:05.584Z,50.05
2019-05-18T18:01:39.030Z,50.46
2019-05-18T18:04:12.218Z,50.80
2019-05-18T18:06:45.576Z,50.97
2019-05-18T18:09:17.700Z,51.54
2019-05-18T18:11:54.697Z,51.79
2019-05-18T18:14:27.617Z,52.60
2019-05-18T18:17:00.139Z,52.60
2019-05-18T18:19:33.562Z,53.18
2019-05-18T18:22:05.737Z,53.35
2019-05-18T18:24:40.651Z,53.41
2019-05-18T18:27:24.887Z,53.96
2019-05-18T18:29:50.030Z,53.68
2019-05-18T18:32:24.032Z,53.68
2019-05-18T18:34:58.386Z,53.56
2019-05-18T18:37:30.673Z,53.38
2019-05-18T18:40:02.974Z,52.55
2019-05-18T18:42:47.711Z,52.88
2019-05-18T18:45:20.973Z,53.63
2019-05-18T18:47:54.507Z,53.94
2019-05-18T18:50:26.689Z,54.86
2019-05-18T18:53:00.608Z,55.57
2019-05-18T18:55:32.713Z,55.85
2019-05-18T18:58:05.757Z,55.76
2019-05-18T19:00:38.909Z,56.10
2019-05-18T19:03:11.984Z,56.50
2019-05-18T19:05:47.003Z,56.88
2019-05-18T19:08:20.863Z,56.73
2019-05-18T19:10:53.926Z,56.87
2019-05-18T19:13:26.565Z,57.41
2019-05-18T19:16:01.338Z,57.21
2019-05-18T19:18:32.746Z,57.47
2019-05-18T19:21:05.289Z,58.18
2019-05-18T19:23:38.331Z,58.60
2019-05-18T19:26:11.740Z,59.36
2019-05-18T19:28:45.110Z,60.59
2019-05-18T19:31:17.803Z,61.30
2019-05-18T19:33:51.703Z,61.80
2019-05-18T19:36:23.137Z,62.47
2019-05-18T19:38:56.907Z,62.93
2019-05-18T19:41:34.323Z,62.96
2019-05-18T19:44:06.085Z,63.77
2019-05-18T19:46:44.286Z,63.58
2019-05-18T19:49:17.759Z,63.45
2019-05-18T19:51:51.146Z,63.67
2019-05-18T19:54:24.810Z,63.64
2019-05-18T19:56:57.194Z,63.67
2019-05-18T19:59:30.558Z,63.58
2019-05-18T20:02:04.178Z,63.38
2019-05-18T20:04:36.731Z,63.97
2019-05-18T20:07:11.438Z,64.86
2019-05-18T20:09:43.584Z,65.67
2019-05-18T20:12:15.307Z,66.34
2019-05-18T20:14:48.859Z,64.76
2019-05-18T20:17:21.300Z,62.81
2019-05-18T20:19:54.221Z,61.76
2019-05-18T20:22:27.012Z,61.28
2019-05-18T20:25:02.534Z,61.14
2019-05-18T20:27:45.141Z,61.67
2019-05-18T20:30:19.130Z,61.68
2019-05-18T20:32:53.164Z,61.44
2019-05-18T20:35:26.135Z,62.00
2019-05-18T20:37:58.200Z,61.89
2019-05-18T20:40:30.291Z,63.30
2019-05-18T20:43:02.997Z,64.83
2019-05-18T20:45:37.366Z,66.22
2019-05-18T20:48:10.049Z,66.27
2019-05-18T20:50:42.314Z,67.21
2019-05-18T20:53:15.867Z,68.76
2019-05-18T20:55:48.512Z,69.25
2019-05-18T20:58:21.586Z,69.54
2019-05-18T21:00:54.412Z,69.21
2019-05-18T21:03:28.792Z,68.99
2019-05-18T21:06:03.049Z,69.34
2019-05-18T21:08:36.318Z,68.62
2019-05-18T21:11:09.862Z,68.14
2019-05-18T21:13:42.502Z,67.83
2019-05-18T21:16:14.643Z,67.28
2019-05-18T21:18:47.201Z,67.09
2019-05-18T21:21:25.055Z,66.68
2019-05-18T21:23:53.732Z,65.63
2019-05-18T21:26:27.634Z,65.26
2019-05-18T21:29:02.000Z,64.29
2019-05-18T21:31:48.462Z,64.21
2019-05-18T21:34:33.846Z,64.76
2019-05-18T21:37:05.626Z,65.14
2019-05-18T21:39:47.240Z,65.79
2019-05-18T21:42:24.768Z,66.24
2019-05-18T21:44:59.428Z,67.11
2019-05-18T21:47:47.234Z,68.25
2019-05-18T21:50:20.744Z,68.50
2019-05-18T21:52:53.860Z,68.56
2019-05-18T21:55:44.309Z,68.23
2019-05-18T21:58:18.540Z,68.69
2019-05-18T22:00:53.825Z,68.34
2019-05-18T22:03:28.627Z,68.48
2019-05-18T22:06:03.626Z,68.48
2019-05-18T22:08:35.476Z,68.68
2019-05-18T22:11:09.329Z,68.52
2019-05-18T22:13:41.775Z,68.07
2019-05-18T22:16:15.212Z,68.23
2019-05-18T22:18:49.399Z,68.48
2019-05-18T22:21:23.485Z,69.70
2019-05-18T22:23:55.811Z,69.87
2019-05-18T22:26:31.407Z,68.69
2019-05-18T22:29:05.794Z,67.76
2019-05-18T22:31:45.669Z,66.35
2019-05-18T22:34:19.307Z,64.72
2019-05-18T22:36:56.463Z,63.33
2019-05-18T22:39:26.969Z,62.79
2019-05-18T22:42:01.296Z,63.68
2019-05-18T22:44:35.536Z,66.46
2019-05-18T22:47:08.845Z,71.23
2019-05-18T22:49:42.843Z,73.66
2019-05-18T22:52:14.912Z,75.08
2019-05-18T22:54:46.641Z,75.44
2019-05-18T22:57:21.607Z,75.26
2019-05-18T22:59:53.004Z,73.42
2019-05-18T23:02:27.282Z,71.36
2019-05-18T23:05:00.516Z,70.44
2019-05-18T23:07:43.006Z,68.82
2019-05-18T23:10:17.146Z,66.56
2019-05-18T23:12:50.958Z,65.09
2019-05-18T23:15:22.940Z,65.50
2019-05-18T23:17:56.796Z,65.65
2019-05-18T23:20:30.781Z,65.69
2019-05-18T23:23:05.581Z,65.12
2019-05-18T23:25:39.970Z,65.11
2019-05-18T23:28:12.404Z,65.66
2019-05-18T23:30:44.884Z,65.75
2019-05-18T23:33:16.816Z,65.51
2019-05-18T23:35:48.352Z,66.47
2019-05-18T23:38:22.047Z,67.39
2019-05-18T23:40:58.329Z,68.62
2019-05-18T23:43:29.961Z,69.11
2019-05-18T23:46:03.186Z,69.05
2019-05-18T23:48:36.069Z,68.99
2019-05-18T23:51:11.076Z,69.18
2019-05-18T23:53:44.961Z,69.70
2019-05-18T23:56:18.005Z,70.79
2019-05-18T23:58:52.489Z,70.24
